sensor_id;sensor_type;location;lat;lon;timestamp;P1;durP1;ratioP1;P2;durP2;ratioP2
68475;SDS011;55464;48.266;14.188;2024-02-14T00:01:16;9.52;;;5.80;;
68475;SDS011;55464;48.266;14.188;2024-02-14T00:03:43;9.00;;;5.22;;
68475;SDS011;55464;48.266;14.188;2024-02-14T00:06:09;17.45;;;6.47;;
68475;SDS011;55464;48.266;14.188;2024-02-14T00:08:34;8.98;;;5.35;;
68475;SDS011;55464;48.266;14.188;2024-02-14T00:11:00;11.55;;;6.03;;
68475;SDS011;55464;48.266;14.188;2024-02-14T00:13:27;7.95;;;6.15;;
68475;SDS011;55464;48.266;14.188;2024-02-14T00:15:52;12.02;;;6.15;;
68475;SDS011;55464;48.266;14.188;2024-02-14T00:18:18;13.30;;;6.40;;
68475;SDS011;55464;48.266;14.188;2024-02-14T00:20:44;10.18;;;5.95;;
68475;SDS011;55464;48.266;14.188;2024-02-14T00:23:10;14.25;;;6.38;;
68475;SDS011;55464;48.266;14.188;2024-02-14T00:25:36;14.85;;;7.10;;
68475;SDS011;55464;48.266;14.188;2024-02-14T00:28:02;13.65;;;6.97;;
68475;SDS011;55464;48.266;14.188;2024-02-14T00:30:29;12.63;;;7.30;;
68475;SDS011;55464;48.266;14.188;2024-02-14T00:32:55;13.05;;;6.53;;
68475;SDS011;55464;48.266;14.188;2024-02-14T00:35:20;14.43;;;6.43;;
68475;SDS011;55464;48.266;14.188;2024-02-14T00:37:46;9.70;;;6.40;;
68475;SDS011;55464;48.266;14.188;2024-02-14T00:40:12;10.00;;;5.63;;
68475;SDS011;55464;48.266;14.188;2024-02-14T00:42:37;9.50;;;5.95;;
68475;SDS011;55464;48.266;14.188;2024-02-14T00:45:03;10.50;;;5.43;;
68475;SDS011;55464;48.266;14.188;2024-02-14T00:47:32;12.07;;;6.07;;
68475;SDS011;55464;48.266;14.188;2024-02-14T00:49:58;10.30;;;5.43;;
68475;SDS011;55464;48.266;14.188;2024-02-14T00:52:23;8.25;;;5.60;;
68475;SDS011;55464;48.266;14.188;2024-02-14T00:54:49;12.18;;;5.90;;
68475;SDS011;55464;48.266;14.188;2024-02-14T00:57:14;12.18;;;5.65;;
68475;SDS011;55464;48.266;14.188;2024-02-14T00:59:40;9.73;;;5.68;;
68475;SDS011;55464;48.266;14.188;2024-02-14T01:02:06;11.05;;;6.28;;
68475;SDS011;55464;48.266;14.188;2024-02-14T01:04:32;10.10;;;5.65;;
68475;SDS011;55464;48.266;14.188;2024-02-14T01:06:57;11.23;;;5.60;;
68475;SDS011;55464;48.266;14.188;2024-02-14T01:09:23;7.25;;;5.38;;
68475;SDS011;55464;48.266;14.188;2024-02-14T01:11:49;8.93;;;4.93;;
68475;SDS011;55464;48.266;14.188;2024-02-14T01:14:15;10.00;;;5.28;;
68475;SDS011;55464;48.266;14.188;2024-02-14T01:16:43;13.27;;;6.10;;
68475;SDS011;55464;48.266;14.188;2024-02-14T01:19:10;11.23;;;5.03;;
68475;SDS011;55464;48.266;14.188;2024-02-14T01:21:36;7.88;;;4.53;;
68475;SDS011;55464;48.266;14.188;2024-02-14T01:24:01;7.72;;;5.07;;
68475;SDS011;55464;48.266;14.188;2024-02-14T01:26:27;11.48;;;4.95;;
68475;SDS011;55464;48.266;14.188;2024-02-14T01:28:52;8.50;;;5.28;;
68475;SDS011;55464;48.266;14.188;2024-02-14T01:31:18;17.83;;;5.90;;
68475;SDS011;55464;48.266;14.188;2024-02-14T01:33:45;9.55;;;5.00;;
68475;SDS011;55464;48.266;14.188;2024-02-14T01:36:11;6.97;;;5.00;;
68475;SDS011;55464;48.266;14.188;2024-02-14T01:38:36;6.65;;;4.75;;
68475;SDS011;55464;48.266;14.188;2024-02-14T01:41:05;9.63;;;4.68;;
68475;SDS011;55464;48.266;14.188;2024-02-14T01:43:31;9.30;;;5.15;;
68475;SDS011;55464;48.266;14.188;2024-02-14T01:46:03;6.93;;;4.60;;
68475;SDS011;55464;48.266;14.188;2024-02-14T01:48:30;7.80;;;4.60;;
68475;SDS011;55464;48.266;14.188;2024-02-14T01:50:56;12.13;;;5.20;;
68475;SDS011;55464;48.266;14.188;2024-02-14T01:53:22;10.70;;;5.35;;
68475;SDS011;55464;48.266;14.188;2024-02-14T01:55:50;8.48;;;4.35;;
68475;SDS011;55464;48.266;14.188;2024-02-14T01:58:16;7.45;;;4.93;;
68475;SDS011;55464;48.266;14.188;2024-02-14T02:00:41;7.95;;;5.07;;
68475;SDS011;55464;48.266;14.188;2024-02-14T02:03:07;10.05;;;4.88;;
68475;SDS011;55464;48.266;14.188;2024-02-14T02:05:33;8.50;;;4.40;;
68475;SDS011;55464;48.266;14.188;2024-02-14T02:07:59;8.55;;;4.32;;
68475;SDS011;55464;48.266;14.188;2024-02-14T02:10:25;7.05;;;4.50;;
68475;SDS011;55464;48.266;14.188;2024-02-14T02:12:52;8.57;;;4.90;;
68475;SDS011;55464;48.266;14.188;2024-02-14T02:15:23;11.57;;;4.90;;
68475;SDS011;55464;48.266;14.188;2024-02-14T02:17:49;7.70;;;4.85;;
68475;SDS011;55464;48.266;14.188;2024-02-14T02:20:17;8.27;;;5.03;;
68475;SDS011;55464;48.266;14.188;2024-02-14T02:22:46;8.80;;;4.60;;
68475;SDS011;55464;48.266;14.188;2024-02-14T02:25:13;7.85;;;4.07;;
68475;SDS011;55464;48.266;14.188;2024-02-14T02:27:39;9.27;;;4.72;;
68475;SDS011;55464;48.266;14.188;2024-02-14T02:30:05;9.45;;;5.28;;
68475;SDS011;55464;48.266;14.188;2024-02-14T02:32:31;7.50;;;4.30;;
68475;SDS011;55464;48.266;14.188;2024-02-14T02:34:57;11.30;;;5.20;;
68475;SDS011;55464;48.266;14.188;2024-02-14T02:37:23;8.95;;;4.97;;
68475;SDS011;55464;48.266;14.188;2024-02-14T02:39:48;7.57;;;4.82;;
68475;SDS011;55464;48.266;14.188;2024-02-14T02:42:14;6.70;;;4.32;;
68475;SDS011;55464;48.266;14.188;2024-02-14T02:44:39;7.47;;;4.63;;
68475;SDS011;55464;48.266;14.188;2024-02-14T02:47:05;12.13;;;5.68;;
68475;SDS011;55464;48.266;14.188;2024-02-14T02:49:30;7.97;;;5.03;;
68475;SDS011;55464;48.266;14.188;2024-02-14T02:51:56;7.45;;;5.43;;
68475;SDS011;55464;48.266;14.188;2024-02-14T02:54:21;9.43;;;4.93;;
68475;SDS011;55464;48.266;14.188;2024-02-14T02:56:49;6.28;;;4.50;;
68475;SDS011;55464;48.266;14.188;2024-02-14T02:59:15;7.15;;;5.05;;
68475;SDS011;55464;48.266;14.188;2024-02-14T03:01:42;9.25;;;5.18;;
68475;SDS011;55464;48.266;14.188;2024-02-14T03:04:07;10.27;;;4.45;;
68475;SDS011;55464;48.266;14.188;2024-02-14T03:06:33;8.48;;;4.95;;
68475;SDS011;55464;48.266;14.188;2024-02-14T03:08:59;7.93;;;4.93;;
68475;SDS011;55464;48.266;14.188;2024-02-14T03:11:24;7.45;;;4.68;;
68475;SDS011;55464;48.266;14.188;2024-02-14T03:13:53;9.65;;;4.88;;
68475;SDS011;55464;48.266;14.188;2024-02-14T03:16:18;8.98;;;5.40;;
68475;SDS011;55464;48.266;14.188;2024-02-14T03:18:43;8.40;;;4.45;;
68475;SDS011;55464;48.266;14.188;2024-02-14T03:21:09;8.63;;;4.47;;
68475;SDS011;55464;48.266;14.188;2024-02-14T03:23:37;7.07;;;4.65;;
68475;SDS011;55464;48.266;14.188;2024-02-14T03:26:02;8.65;;;5.00;;
68475;SDS011;55464;48.266;14.188;2024-02-14T03:28:33;8.00;;;5.28;;
68475;SDS011;55464;48.266;14.188;2024-02-14T03:30:58;7.75;;;5.00;;
68475;SDS011;55464;48.266;14.188;2024-02-14T03:33:24;10.02;;;5.57;;
68475;SDS011;55464;48.266;14.188;2024-02-14T03:35:49;9.32;;;5.95;;
68475;SDS011;55464;48.266;14.188;2024-02-14T03:38:25;10.27;;;5.20;;
68475;SDS011;55464;48.266;14.188;2024-02-14T03:40:53;11.88;;;6.38;;
68475;SDS011;55464;48.266;14.188;2024-02-14T03:43:19;10.23;;;5.10;;
68475;SDS011;55464;48.266;14.188;2024-02-14T03:45:45;6.35;;;4.65;;
68475;SDS011;55464;48.266;14.188;2024-02-14T03:48:11;9.75;;;5.00;;
68475;SDS011;55464;48.266;14.188;2024-02-14T03:50:40;10.38;;;6.05;;
68475;SDS011;55464;48.266;14.188;2024-02-14T03:53:05;8.77;;;5.80;;
68475;SDS011;55464;48.266;14.188;2024-02-14T03:55:31;8.70;;;5.43;;
68475;SDS011;55464;48.266;14.188;2024-02-14T03:57:57;9.20;;;5.68;;
68475;SDS011;55464;48.266;14.188;2024-02-14T04:00:22;10.77;;;5.53;;
68475;SDS011;55464;48.266;14.188;2024-02-14T04:02:48;7.72;;;5.15;;
68475;SDS011;55464;48.266;14.188;2024-02-14T04:05:14;11.60;;;5.50;;
68475;SDS011;55464;48.266;14.188;2024-02-14T04:07:40;10.38;;;5.78;;
68475;SDS011;55464;48.266;14.188;2024-02-14T04:10:05;9.25;;;5.35;;
68475;SDS011;55464;48.266;14.188;2024-02-14T04:12:31;8.18;;;5.28;;
68475;SDS011;55464;48.266;14.188;2024-02-14T04:14:57;11.18;;;7.78;;
68475;SDS011;55464;48.266;14.188;2024-02-14T04:17:23;11.18;;;7.35;;
68475;SDS011;55464;48.266;14.188;2024-02-14T04:19:49;10.48;;;6.10;;
68475;SDS011;55464;48.266;14.188;2024-02-14T04:22:15;10.07;;;6.47;;
68475;SDS011;55464;48.266;14.188;2024-02-14T04:24:40;7.95;;;6.20;;
68475;SDS011;55464;48.266;14.188;2024-02-14T04:27:06;10.98;;;6.30;;
68475;SDS011;55464;48.266;14.188;2024-02-14T04:29:31;9.35;;;5.75;;
68475;SDS011;55464;48.266;14.188;2024-02-14T04:32:01;9.90;;;6.25;;
68475;SDS011;55464;48.266;14.188;2024-02-14T04:34:27;10.30;;;7.78;;
68475;SDS011;55464;48.266;14.188;2024-02-14T04:36:53;9.52;;;6.13;;
68475;SDS011;55464;48.266;14.188;2024-02-14T04:39:18;6.50;;;5.32;;
68475;SDS011;55464;48.266;14.188;2024-02-14T04:41:44;9.85;;;5.55;;
68475;SDS011;55464;48.266;14.188;2024-02-14T04:44:09;11.23;;;7.53;;
68475;SDS011;55464;48.266;14.188;2024-02-14T04:46:35;9.73;;;5.97;;
68475;SDS011;55464;48.266;14.188;2024-02-14T04:49:04;8.25;;;6.22;;
68475;SDS011;55464;48.266;14.188;2024-02-14T04:51:29;7.82;;;5.38;;
68475;SDS011;55464;48.266;14.188;2024-02-14T04:53:56;6.75;;;4.22;;
68475;SDS011;55464;48.266;14.188;2024-02-14T04:56:24;6.68;;;3.50;;
68475;SDS011;55464;48.266;14.188;2024-02-14T04:58:50;5.35;;;3.80;;
68475;SDS011;55464;48.266;14.188;2024-02-14T05:01:17;7.60;;;4.38;;
68475;SDS011;55464;48.266;14.188;2024-02-14T05:03:43;5.97;;;4.05;;
68475;SDS011;55464;48.266;14.188;2024-02-14T05:06:09;5.70;;;4.10;;
68475;SDS011;55464;48.266;14.188;2024-02-14T05:08:34;5.43;;;4.15;;
68475;SDS011;55464;48.266;14.188;2024-02-14T05:11:00;6.22;;;4.25;;
68475;SDS011;55464;48.266;14.188;2024-02-14T05:13:25;5.63;;;4.93;;
68475;SDS011;55464;48.266;14.188;2024-02-14T05:15:51;7.93;;;5.07;;
68475;SDS011;55464;48.266;14.188;2024-02-14T05:18:16;9.80;;;5.75;;
68475;SDS011;55464;48.266;14.188;2024-02-14T05:20:42;5.75;;;3.92;;
68475;SDS011;55464;48.266;14.188;2024-02-14T05:23:07;8.32;;;4.45;;
68475;SDS011;55464;48.266;14.188;2024-02-14T05:25:34;6.72;;;4.53;;
68475;SDS011;55464;48.266;14.188;2024-02-14T05:27:59;6.50;;;4.55;;
68475;SDS011;55464;48.266;14.188;2024-02-14T05:30:26;5.65;;;4.00;;
68475;SDS011;55464;48.266;14.188;2024-02-14T05:32:51;7.75;;;5.32;;
68475;SDS011;55464;48.266;14.188;2024-02-14T05:35:17;6.43;;;4.90;;
68475;SDS011;55464;48.266;14.188;2024-02-14T05:37:43;6.50;;;4.65;;
68475;SDS011;55464;48.266;14.188;2024-02-14T05:40:08;5.32;;;4.22;;
68475;SDS011;55464;48.266;14.188;2024-02-14T05:42:34;6.55;;;4.57;;
68475;SDS011;55464;48.266;14.188;2024-02-14T05:44:59;9.10;;;5.25;;
68475;SDS011;55464;48.266;14.188;2024-02-14T05:47:25;6.57;;;4.20;;
68475;SDS011;55464;48.266;14.188;2024-02-14T05:49:51;6.70;;;4.25;;
68475;SDS011;55464;48.266;14.188;2024-02-14T05:52:16;12.23;;;5.25;;
68475;SDS011;55464;48.266;14.188;2024-02-14T05:54:43;9.30;;;5.15;;
68475;SDS011;55464;48.266;14.188;2024-02-14T05:57:08;5.80;;;4.63;;
68475;SDS011;55464;48.266;14.188;2024-02-14T05:59:34;7.90;;;4.82;;
68475;SDS011;55464;48.266;14.188;2024-02-14T06:01:59;8.27;;;4.45;;
68475;SDS011;55464;48.266;14.188;2024-02-14T06:04:27;10.27;;;4.57;;
68475;SDS011;55464;48.266;14.188;2024-02-14T06:06:53;8.38;;;4.95;;
68475;SDS011;55464;48.266;14.188;2024-02-14T06:09:18;9.30;;;5.38;;
68475;SDS011;55464;48.266;14.188;2024-02-14T06:11:44;8.27;;;5.28;;
68475;SDS011;55464;48.266;14.188;2024-02-14T06:14:09;8.27;;;4.63;;
68475;SDS011;55464;48.266;14.188;2024-02-14T06:16:35;8.02;;;5.07;;
68475;SDS011;55464;48.266;14.188;2024-02-14T06:19:01;10.10;;;5.03;;
68475;SDS011;55464;48.266;14.188;2024-02-14T06:21:29;7.63;;;5.57;;
68475;SDS011;55464;48.266;14.188;2024-02-14T06:23:55;12.75;;;4.68;;
68475;SDS011;55464;48.266;14.188;2024-02-14T06:26:20;8.40;;;5.50;;
68475;SDS011;55464;48.266;14.188;2024-02-14T06:28:45;9.65;;;5.60;;
68475;SDS011;55464;48.266;14.188;2024-02-14T06:31:11;6.15;;;4.85;;
68475;SDS011;55464;48.266;14.188;2024-02-14T06:33:36;10.07;;;6.05;;
68475;SDS011;55464;48.266;14.188;2024-02-14T06:36:02;11.05;;;5.88;;
68475;SDS011;55464;48.266;14.188;2024-02-14T06:38:28;9.73;;;5.75;;
68475;SDS011;55464;48.266;14.188;2024-02-14T06:40:53;7.65;;;5.40;;
68475;SDS011;55464;48.266;14.188;2024-02-14T06:43:19;12.50;;;5.80;;
68475;SDS011;55464;48.266;14.188;2024-02-14T06:45:45;9.23;;;5.45;;
68475;SDS011;55464;48.266;14.188;2024-02-14T06:48:10;9.70;;;5.53;;
68475;SDS011;55464;48.266;14.188;2024-02-14T06:50:36;8.88;;;5.55;;
68475;SDS011;55464;48.266;14.188;2024-02-14T06:53:01;11.07;;;6.13;;
68475;SDS011;55464;48.266;14.188;2024-02-14T06:55:27;13.52;;;6.32;;
68475;SDS011;55464;48.266;14.188;2024-02-14T06:57:53;8.85;;;6.15;;
68475;SDS011;55464;48.266;14.188;2024-02-14T07:00:19;9.98;;;5.88;;
68475;SDS011;55464;48.266;14.188;2024-02-14T07:02:45;10.48;;;6.78;;
68475;SDS011;55464;48.266;14.188;2024-02-14T07:05:13;10.80;;;6.97;;
68475;SDS011;55464;48.266;14.188;2024-02-14T07:07:39;11.45;;;6.45;;
68475;SDS011;55464;48.266;14.188;2024-02-14T07:10:08;12.32;;;6.72;;
68475;SDS011;55464;48.266;14.188;2024-02-14T07:12:34;10.68;;;6.93;;
68475;SDS011;55464;48.266;14.188;2024-02-14T07:15:01;10.23;;;6.53;;
68475;SDS011;55464;48.266;14.188;2024-02-14T07:17:26;11.23;;;6.55;;
68475;SDS011;55464;48.266;14.188;2024-02-14T07:19:52;12.55;;;6.38;;
68475;SDS011;55464;48.266;14.188;2024-02-14T07:22:17;13.20;;;6.43;;
68475;SDS011;55464;48.266;14.188;2024-02-14T07:24:44;10.43;;;6.50;;
68475;SDS011;55464;48.266;14.188;2024-02-14T07:27:11;12.50;;;6.72;;
68475;SDS011;55464;48.266;14.188;2024-02-14T07:29:38;10.07;;;6.43;;
68475;SDS011;55464;48.266;14.188;2024-02-14T07:32:03;10.60;;;6.90;;
68475;SDS011;55464;48.266;14.188;2024-02-14T07:34:29;14.60;;;7.63;;
68475;SDS011;55464;48.266;14.188;2024-02-14T07:36:54;12.60;;;7.20;;
68475;SDS011;55464;48.266;14.188;2024-02-14T07:39:19;13.25;;;7.60;;
68475;SDS011;55464;48.266;14.188;2024-02-14T07:41:45;14.50;;;7.85;;
68475;SDS011;55464;48.266;14.188;2024-02-14T07:44:11;14.48;;;7.28;;
68475;SDS011;55464;48.266;14.188;2024-02-14T07:46:37;18.08;;;6.88;;
68475;SDS011;55464;48.266;14.188;2024-02-14T07:49:02;10.35;;;6.60;;
68475;SDS011;55464;48.266;14.188;2024-02-14T07:51:29;10.68;;;7.10;;
68475;SDS011;55464;48.266;14.188;2024-02-14T07:54:01;10.52;;;6.85;;
68475;SDS011;55464;48.266;14.188;2024-02-14T07:56:27;11.32;;;6.85;;
68475;SDS011;55464;48.266;14.188;2024-02-14T07:58:53;11.70;;;6.75;;
68475;SDS011;55464;48.266;14.188;2024-02-14T08:01:18;14.50;;;7.25;;
68475;SDS011;55464;48.266;14.188;2024-02-14T08:03:44;14.15;;;6.85;;
68475;SDS011;55464;48.266;14.188;2024-02-14T08:06:11;10.95;;;6.57;;
68475;SDS011;55464;48.266;14.188;2024-02-14T08:08:37;17.02;;;7.10;;
68475;SDS011;55464;48.266;14.188;2024-02-14T08:11:03;16.10;;;6.78;;
68475;SDS011;55464;48.266;14.188;2024-02-14T08:13:29;18.42;;;7.57;;
68475;SDS011;55464;48.266;14.188;2024-02-14T08:15:54;14.13;;;7.40;;
68475;SDS011;55464;48.266;14.188;2024-02-14T08:18:19;18.13;;;7.40;;
68475;SDS011;55464;48.266;14.188;2024-02-14T08:20:45;12.25;;;7.00;;
68475;SDS011;55464;48.266;14.188;2024-02-14T08:23:11;12.63;;;6.93;;
68475;SDS011;55464;48.266;14.188;2024-02-14T08:25:36;14.98;;;6.63;;
68475;SDS011;55464;48.266;14.188;2024-02-14T08:28:02;10.40;;;7.10;;
68475;SDS011;55464;48.266;14.188;2024-02-14T08:30:27;10.60;;;7.03;;
68475;SDS011;55464;48.266;14.188;2024-02-14T08:32:53;16.92;;;6.68;;
68475;SDS011;55464;48.266;14.188;2024-02-14T08:35:19;11.63;;;7.20;;
68475;SDS011;55464;48.266;14.188;2024-02-14T08:37:44;12.80;;;7.72;;
68475;SDS011;55464;48.266;14.188;2024-02-14T08:40:10;16.55;;;7.78;;
68475;SDS011;55464;48.266;14.188;2024-02-14T08:42:37;12.30;;;8.63;;
68475;SDS011;55464;48.266;14.188;2024-02-14T08:45:02;17.05;;;7.53;;
68475;SDS011;55464;48.266;14.188;2024-02-14T08:47:28;14.15;;;7.90;;
68475;SDS011;55464;48.266;14.188;2024-02-14T08:49:54;18.00;;;9.00;;
68475;SDS011;55464;48.266;14.188;2024-02-14T08:52:20;16.25;;;8.10;;
68475;SDS011;55464;48.266;14.188;2024-02-14T08:54:46;17.38;;;9.02;;
68475;SDS011;55464;48.266;14.188;2024-02-14T08:57:11;18.77;;;9.00;;
68475;SDS011;55464;48.266;14.188;2024-02-14T08:59:37;15.98;;;9.13;;
68475;SDS011;55464;48.266;14.188;2024-02-14T09:02:03;17.17;;;9.43;;
68475;SDS011;55464;48.266;14.188;2024-02-14T09:04:28;16.90;;;9.25;;
68475;SDS011;55464;48.266;14.188;2024-02-14T09:06:54;17.25;;;9.38;;
68475;SDS011;55464;48.266;14.188;2024-02-14T09:09:19;18.25;;;8.63;;
68475;SDS011;55464;48.266;14.188;2024-02-14T09:11:45;14.45;;;8.20;;
68475;SDS011;55464;48.266;14.188;2024-02-14T09:14:11;17.75;;;9.15;;
68475;SDS011;55464;48.266;14.188;2024-02-14T09:16:37;14.90;;;8.05;;
68475;SDS011;55464;48.266;14.188;2024-02-14T09:19:04;18.33;;;9.48;;
68475;SDS011;55464;48.266;14.188;2024-02-14T09:21:32;15.52;;;8.43;;
68475;SDS011;55464;48.266;14.188;2024-02-14T09:24:00;13.93;;;7.78;;
68475;SDS011;55464;48.266;14.188;2024-02-14T09:26:26;21.00;;;9.05;;
68475;SDS011;55464;48.266;14.188;2024-02-14T09:28:51;16.85;;;9.48;;
68475;SDS011;55464;48.266;14.188;2024-02-14T09:31:17;18.70;;;9.40;;
68475;SDS011;55464;48.266;14.188;2024-02-14T09:33:45;22.05;;;11.40;;
68475;SDS011;55464;48.266;14.188;2024-02-14T09:36:12;17.55;;;10.52;;
68475;SDS011;55464;48.266;14.188;2024-02-14T09:38:39;18.20;;;11.02;;
68475;SDS011;55464;48.266;14.188;2024-02-14T09:41:06;17.75;;;11.23;;
68475;SDS011;55464;48.266;14.188;2024-02-14T09:43:40;23.38;;;10.55;;
68475;SDS011;55464;48.266;14.188;2024-02-14T09:46:09;18.70;;;11.15;;
68475;SDS011;55464;48.266;14.188;2024-02-14T09:48:40;22.13;;;12.32;;
68475;SDS011;55464;48.266;14.188;2024-02-14T09:51:08;22.77;;;12.20;;
68475;SDS011;55464;48.266;14.188;2024-02-14T09:53:34;19.17;;;11.23;;
68475;SDS011;55464;48.266;14.188;2024-02-14T09:56:00;21.90;;;10.30;;
68475;SDS011;55464;48.266;14.188;2024-02-14T09:58:27;21.52;;;10.57;;
68475;SDS011;55464;48.266;14.188;2024-02-14T10:00:53;18.67;;;10.63;;
68475;SDS011;55464;48.266;14.188;2024-02-14T10:03:18;17.52;;;10.13;;
68475;SDS011;55464;48.266;14.188;2024-02-14T10:05:44;20.58;;;10.70;;
68475;SDS011;55464;48.266;14.188;2024-02-14T10:08:10;18.13;;;9.55;;
68475;SDS011;55464;48.266;14.188;2024-02-14T10:10:37;18.15;;;8.32;;
68475;SDS011;55464;48.266;14.188;2024-02-14T10:13:03;14.43;;;7.47;;
68475;SDS011;55464;48.266;14.188;2024-02-14T10:15:31;12.25;;;7.95;;
68475;SDS011;55464;48.266;14.188;2024-02-14T10:17:57;12.27;;;7.00;;
68475;SDS011;55464;48.266;14.188;2024-02-14T10:20:24;12.38;;;7.78;;
68475;SDS011;55464;48.266;14.188;2024-02-14T10:22:51;12.63;;;8.40;;
68475;SDS011;55464;48.266;14.188;2024-02-14T10:25:17;12.45;;;6.68;;
68475;SDS011;55464;48.266;14.188;2024-02-14T10:27:44;10.00;;;6.05;;
68475;SDS011;55464;48.266;14.188;2024-02-14T10:30:11;10.80;;;6.68;;
68475;SDS011;55464;48.266;14.188;2024-02-14T10:32:38;13.20;;;6.68;;
68475;SDS011;55464;48.266;14.188;2024-02-14T10:35:05;12.27;;;6.68;;
68475;SDS011;55464;48.266;14.188;2024-02-14T10:37:33;12.80;;;7.28;;
68475;SDS011;55464;48.266;14.188;2024-02-14T10:40:01;14.35;;;8.02;;
68475;SDS011;55464;48.266;14.188;2024-02-14T10:42:29;14.50;;;8.07;;
68475;SDS011;55464;48.266;14.188;2024-02-14T10:44:55;10.10;;;6.93;;
68475;SDS011;55464;48.266;14.188;2024-02-14T10:47:21;12.55;;;7.72;;
68475;SDS011;55464;48.266;14.188;2024-02-14T10:49:54;10.60;;;6.65;;
68475;SDS011;55464;48.266;14.188;2024-02-14T10:52:28;14.98;;;7.18;;
68475;SDS011;55464;48.266;14.188;2024-02-14T10:54:58;12.88;;;6.53;;
68475;SDS011;55464;48.266;14.188;2024-02-14T10:57:27;14.02;;;7.07;;
68475;SDS011;55464;48.266;14.188;2024-02-14T10:59:54;11.57;;;6.72;;
68475;SDS011;55464;48.266;14.188;2024-02-14T11:02:20;8.02;;;6.43;;
68475;SDS011;55464;48.266;14.188;2024-02-14T11:04:47;12.27;;;5.50;;
68475;SDS011;55464;48.266;14.188;2024-02-14T11:07:13;12.93;;;6.15;;
68475;SDS011;55464;48.266;14.188;2024-02-14T11:09:41;10.15;;;6.00;;
68475;SDS011;55464;48.266;14.188;2024-02-14T11:12:07;10.68;;;5.13;;
68475;SDS011;55464;48.266;14.188;2024-02-14T11:14:36;13.20;;;6.30;;
68475;SDS011;55464;48.266;14.188;2024-02-14T11:17:04;13.75;;;6.65;;
68475;SDS011;55464;48.266;14.188;2024-02-14T11:19:34;9.60;;;5.43;;
68475;SDS011;55464;48.266;14.188;2024-02-14T11:25:05;9.90;;;5.80;;
68475;SDS011;55464;48.266;14.188;2024-02-14T11:27:32;9.88;;;6.45;;
68475;SDS011;55464;48.266;14.188;2024-02-14T11:29:58;12.63;;;6.30;;
68475;SDS011;55464;48.266;14.188;2024-02-14T11:32:24;12.77;;;6.40;;
68475;SDS011;55464;48.266;14.188;2024-02-14T11:34:53;15.77;;;6.63;;
68475;SDS011;55464;48.266;14.188;2024-02-14T11:37:20;10.57;;;5.70;;
68475;SDS011;55464;48.266;14.188;2024-02-14T11:39:52;9.38;;;6.18;;
68475;SDS011;55464;48.266;14.188;2024-02-14T11:42:20;7.63;;;5.57;;
68475;SDS011;55464;48.266;14.188;2024-02-14T11:44:46;8.73;;;5.75;;
68475;SDS011;55464;48.266;14.188;2024-02-14T11:47:12;9.38;;;6.20;;
68475;SDS011;55464;48.266;14.188;2024-02-14T11:49:38;10.07;;;6.03;;
68475;SDS011;55464;48.266;14.188;2024-02-14T11:52:04;13.77;;;5.53;;
68475;SDS011;55464;48.266;14.188;2024-02-14T11:54:30;9.68;;;5.85;;
68475;SDS011;55464;48.266;14.188;2024-02-14T11:56:56;8.75;;;5.97;;
68475;SDS011;55464;48.266;14.188;2024-02-14T11:59:22;8.98;;;6.53;;
68475;SDS011;55464;48.266;14.188;2024-02-14T12:01:48;9.60;;;5.60;;
68475;SDS011;55464;48.266;14.188;2024-02-14T12:04:16;10.25;;;5.38;;
68475;SDS011;55464;48.266;14.188;2024-02-14T12:06:42;9.75;;;5.05;;
68475;SDS011;55464;48.266;14.188;2024-02-14T12:09:08;8.73;;;4.07;;
68475;SDS011;55464;48.266;14.188;2024-02-14T12:11:35;9.27;;;3.88;;
68475;SDS011;55464;48.266;14.188;2024-02-14T12:14:07;7.13;;;3.30;;
68475;SDS011;55464;48.266;14.188;2024-02-14T12:16:36;4.28;;;3.30;;
68475;SDS011;55464;48.266;14.188;2024-02-14T12:19:07;7.32;;;3.20;;
68475;SDS011;55464;48.266;14.188;2024-02-14T12:21:37;4.10;;;3.13;;
68475;SDS011;55464;48.266;14.188;2024-02-14T12:24:08;3.75;;;2.67;;
68475;SDS011;55464;48.266;14.188;2024-02-14T12:26:39;4.60;;;2.95;;
68475;SDS011;55464;48.266;14.188;2024-02-14T12:29:06;5.38;;;3.60;;
68475;SDS011;55464;48.266;14.188;2024-02-14T12:31:32;8.10;;;3.50;;
68475;SDS011;55464;48.266;14.188;2024-02-14T12:33:59;5.15;;;3.45;;
68475;SDS011;55464;48.266;14.188;2024-02-14T12:36:27;7.53;;;3.30;;
68475;SDS011;55464;48.266;14.188;2024-02-14T12:38:56;5.50;;;3.17;;
68475;SDS011;55464;48.266;14.188;2024-02-14T12:41:22;4.43;;;3.17;;
68475;SDS011;55464;48.266;14.188;2024-02-14T12:43:55;4.22;;;3.25;;
68475;SDS011;55464;48.266;14.188;2024-02-14T12:46:21;5.15;;;3.80;;
68475;SDS011;55464;48.266;14.188;2024-02-14T12:48:46;5.32;;;3.03;;
68475;SDS011;55464;48.266;14.188;2024-02-14T12:51:13;5.85;;;3.95;;
68475;SDS011;55464;48.266;14.188;2024-02-14T12:53:39;4.47;;;3.33;;
68475;SDS011;55464;48.266;14.188;2024-02-14T12:56:05;8.50;;;3.67;;
68475;SDS011;55464;48.266;14.188;2024-02-14T12:58:31;5.72;;;3.63;;
68475;SDS011;55464;48.266;14.188;2024-02-14T13:00:57;6.88;;;3.92;;
68475;SDS011;55464;48.266;14.188;2024-02-14T13:03:24;9.45;;;3.38;;
68475;SDS011;55464;48.266;14.188;2024-02-14T13:05:50;5.45;;;3.53;;
68475;SDS011;55464;48.266;14.188;2024-02-14T13:08:16;5.82;;;3.25;;
68475;SDS011;55464;48.266;14.188;2024-02-14T13:10:41;5.35;;;3.03;;
68475;SDS011;55464;48.266;14.188;2024-02-14T13:13:07;6.35;;;3.70;;
68475;SDS011;55464;48.266;14.188;2024-02-14T13:15:32;9.40;;;3.20;;
68475;SDS011;55464;48.266;14.188;2024-02-14T13:17:58;7.80;;;3.35;;
68475;SDS011;55464;48.266;14.188;2024-02-14T13:20:24;7.30;;;3.67;;
68475;SDS011;55464;48.266;14.188;2024-02-14T13:22:50;5.80;;;3.40;;
68475;SDS011;55464;48.266;14.188;2024-02-14T13:25:15;6.13;;;3.58;;
68475;SDS011;55464;48.266;14.188;2024-02-14T13:27:41;10.40;;;4.47;;
68475;SDS011;55464;48.266;14.188;2024-02-14T13:30:09;8.30;;;4.68;;
68475;SDS011;55464;48.266;14.188;2024-02-14T13:32:35;6.53;;;4.25;;
68475;SDS011;55464;48.266;14.188;2024-02-14T13:35:01;8.30;;;4.40;;
68475;SDS011;55464;48.266;14.188;2024-02-14T13:37:26;8.25;;;3.38;;
68475;SDS011;55464;48.266;14.188;2024-02-14T13:39:52;4.78;;;3.70;;
68475;SDS011;55464;48.266;14.188;2024-02-14T13:42:17;7.70;;;3.67;;
68475;SDS011;55464;48.266;14.188;2024-02-14T13:44:43;5.50;;;3.60;;
68475;SDS011;55464;48.266;14.188;2024-02-14T13:47:10;8.63;;;3.50;;
68475;SDS011;55464;48.266;14.188;2024-02-14T13:49:35;5.20;;;4.10;;
68475;SDS011;55464;48.266;14.188;2024-02-14T13:52:01;7.78;;;3.58;;
68475;SDS011;55464;48.266;14.188;2024-02-14T13:54:26;9.90;;;3.70;;
68475;SDS011;55464;48.266;14.188;2024-02-14T13:56:51;7.43;;;3.03;;
68475;SDS011;55464;48.266;14.188;2024-02-14T13:59:17;7.82;;;3.67;;
68475;SDS011;55464;48.266;14.188;2024-02-14T14:01:44;5.05;;;3.50;;
68475;SDS011;55464;48.266;14.188;2024-02-14T14:04:11;6.78;;;3.30;;
68475;SDS011;55464;48.266;14.188;2024-02-14T14:06:37;6.13;;;3.67;;
68475;SDS011;55464;48.266;14.188;2024-02-14T14:09:04;7.75;;;4.00;;
68475;SDS011;55464;48.266;14.188;2024-02-14T14:11:32;4.53;;;3.58;;
68475;SDS011;55464;48.266;14.188;2024-02-14T14:13:58;7.25;;;3.20;;
68475;SDS011;55464;48.266;14.188;2024-02-14T14:16:23;8.40;;;3.95;;
68475;SDS011;55464;48.266;14.188;2024-02-14T14:18:49;6.05;;;3.38;;
68475;SDS011;55464;48.266;14.188;2024-02-14T14:21:15;7.32;;;3.53;;
68475;SDS011;55464;48.266;14.188;2024-02-14T14:23:40;4.25;;;3.42;;
68475;SDS011;55464;48.266;14.188;2024-02-14T14:26:06;3.83;;;3.22;;